createdAt,value
2023-05-20T00:00:01.829Z,97821.69
2023-05-20T00:02:30.582Z,97817.50
2023-05-20T00:04:59.170Z,97818.53
2023-05-20T00:07:27.505Z,97815.00
2023-05-20T00:09:55.902Z,97818.63
2023-05-20T00:12:24.101Z,97817.84
2023-05-20T00:14:55.308Z,97818.44
2023-05-20T00:17:25.859Z,97817.31
2023-05-20T00:19:54.209Z,97816.19
2023-05-20T00:22:23.221Z,97807.88
2023-05-20T00:24:51.428Z,97813.69
2023-05-20T00:27:19.662Z,97816.94
2023-05-20T00:29:48.119Z,97821.81
2023-05-20T00:32:17.710Z,97816.44
2023-05-20T00:34:45.913Z,97819.78
2023-05-20T00:37:14.127Z,97821.25
2023-05-20T00:39:42.291Z,97821.59
2023-05-20T00:42:10.472Z,97812.69
2023-05-20T00:44:38.656Z,97803.06
2023-05-20T00:47:06.889Z,97798.63
2023-05-20T00:49:36.427Z,97805.22
2023-05-20T00:52:04.722Z,97816.59
2023-05-20T00:54:33.019Z,97809.31
2023-05-20T00:57:03.087Z,97807.81
2023-05-20T00:59:31.451Z,97799.94
2023-05-20T01:01:59.765Z,97800.38
2023-05-20T01:04:28.352Z,97803.81
2023-05-20T01:06:58.102Z,97802.81
2023-05-20T01:09:26.750Z,97805.97
2023-05-20T01:12:02.516Z,97805.19
2023-05-20T01:14:34.604Z,97801.38
2023-05-20T01:17:09.399Z,97796.28
2023-05-20T01:19:40.171Z,97791.09
2023-05-20T01:22:13.121Z,97800.06
2023-05-20T01:24:44.140Z,97800.22
2023-05-20T01:27:13.517Z,97791.72
2023-05-20T01:29:46.001Z,97783.25
2023-05-20T01:32:18.056Z,97779.03
2023-05-20T01:34:46.634Z,97768.06
2023-05-20T01:37:16.649Z,97777.16
2023-05-20T01:39:48.005Z,97778.66
2023-05-20T01:42:16.853Z,97781.47
2023-05-20T01:44:45.113Z,97786.75
2023-05-20T01:47:13.306Z,97782.22
2023-05-20T01:49:43.251Z,97777.38
2023-05-20T01:52:12.721Z,97774.44
2023-05-20T01:54:40.870Z,97770.25
2023-05-20T01:57:10.576Z,97772.91
2023-05-20T01:59:39.694Z,97770.09
2023-05-20T02:02:08.019Z,97767.31
2023-05-20T02:04:36.971Z,97766.22
2023-05-20T02:07:05.610Z,97771.31
2023-05-20T02:09:34.999Z,97764.59
2023-05-20T02:12:03.165Z,97767.25
2023-05-20T02:14:32.716Z,97769.22
2023-05-20T02:17:00.912Z,97762.22
2023-05-20T02:19:29.335Z,97756.69
2023-05-20T02:21:58.079Z,97761.75
2023-05-20T02:24:26.332Z,97757.72
2023-05-20T02:26:57.442Z,97758.69
2023-05-20T02:29:25.696Z,97767.94
2023-05-20T02:31:55.294Z,97775.41
2023-05-20T02:34:23.518Z,97782.22
2023-05-20T02:36:51.891Z,97784.53
2023-05-20T02:39:20.720Z,97783.69
2023-05-20T02:41:48.918Z,97779.28
2023-05-20T02:44:17.195Z,97773.88
2023-05-20T02:46:45.407Z,97772.72
2023-05-20T02:49:15.044Z,97775.34
2023-05-20T02:51:43.511Z,97774.22
2023-05-20T02:54:12.556Z,97767.00
2023-05-20T02:56:40.796Z,97772.69
2023-05-20T02:59:09.196Z,97784.16
2023-05-20T03:01:37.439Z,97789.34
2023-05-20T03:04:05.661Z,97783.06
2023-05-20T03:06:35.280Z,97786.91
2023-05-20T03:09:03.472Z,97783.63
2023-05-20T03:11:31.697Z,97778.31
2023-05-20T03:13:59.830Z,97779.03
2023-05-20T03:16:28.364Z,97776.63
2023-05-20T03:18:56.823Z,97773.63
2023-05-20T03:21:25.311Z,97776.38
2023-05-20T03:23:55.099Z,97769.34
2023-05-20T03:26:23.304Z,97774.41
2023-05-20T03:28:52.357Z,97778.34
2023-05-20T03:31:21.162Z,97786.47
2023-05-20T03:33:49.380Z,97787.59
2023-05-20T03:36:17.947Z,97790.22
2023-05-20T03:38:46.098Z,97787.25
2023-05-20T03:41:15.784Z,97782.63
2023-05-20T03:43:43.906Z,97790.88
2023-05-20T03:46:12.432Z,97785.81
2023-05-20T03:48:41.173Z,97786.34
2023-05-20T03:51:09.407Z,97781.44
2023-05-20T03:53:37.617Z,97785.38
2023-05-20T03:56:06.374Z,97781.66
2023-05-20T03:58:38.634Z,97781.34
2023-05-20T04:01:07.633Z,97786.47
2023-05-20T04:03:36.018Z,97786.97
2023-05-20T04:06:05.207Z,97789.44
2023-05-20T04:08:34.043Z,97791.72
2023-05-20T04:11:03.418Z,97786.25
2023-05-20T04:13:31.580Z,97786.41
2023-05-20T04:16:02.141Z,97797.66
2023-05-20T04:18:31.900Z,97798.44
2023-05-20T04:21:01.754Z,97797.63
2023-05-20T04:23:30.256Z,97798.94
2023-05-20T04:26:02.656Z,97797.41
2023-05-20T04:28:32.910Z,97793.19
2023-05-20T04:31:04.587Z,97784.97
2023-05-20T04:33:37.931Z,97784.84
2023-05-20T04:36:08.751Z,97787.47
2023-05-20T04:38:37.451Z,97789.13
2023-05-20T04:41:07.176Z,97775.63
2023-05-20T04:43:35.584Z,97778.66
2023-05-20T04:46:06.244Z,97780.47
2023-05-20T04:48:35.256Z,97785.44
2023-05-20T04:51:03.472Z,97789.34
2023-05-20T04:53:34.005Z,97787.28
2023-05-20T04:56:03.606Z,97780.56
2023-05-20T04:58:33.570Z,97786.28
2023-05-20T05:01:02.771Z,97782.38
2023-05-20T05:03:34.458Z,97774.50
2023-05-20T05:06:04.169Z,97782.19
2023-05-20T05:08:32.377Z,97784.69
2023-05-20T05:11:00.942Z,97776.59
2023-05-20T05:13:29.214Z,97782.81
2023-05-20T05:16:00.907Z,97788.63
2023-05-20T05:18:32.576Z,97785.03
2023-05-20T05:21:02.111Z,97786.56
2023-05-20T05:23:30.869Z,97791.00
2023-05-20T05:25:59.203Z,97786.16
2023-05-20T05:28:27.828Z,97791.00
2023-05-20T05:30:56.717Z,97795.47
2023-05-20T05:33:25.031Z,97799.50
2023-05-20T05:35:56.840Z,97797.81
2023-05-20T05:38:25.043Z,97798.28
2023-05-20T05:40:53.371Z,97797.00
2023-05-20T05:43:22.649Z,97798.09
2023-05-20T05:45:52.278Z,97801.84
2023-05-20T05:48:20.672Z,97802.91
2023-05-20T05:50:49.179Z,97803.03
2023-05-20T05:53:20.312Z,97801.72
2023-05-20T05:55:50.248Z,97787.19
2023-05-20T05:58:19.303Z,97794.94
2023-05-20T06:00:47.555Z,97796.75
2023-05-20T06:03:16.134Z,97790.13
2023-05-20T06:05:46.548Z,97797.88
2023-05-20T06:08:14.761Z,97793.31
2023-05-20T06:10:48.988Z,97792.44
2023-05-20T06:13:17.902Z,97785.00
2023-05-20T06:15:46.502Z,97788.09
2023-05-20T06:18:14.894Z,97787.50
2023-05-20T06:20:43.546Z,97785.03
2023-05-20T06:23:12.205Z,97784.31
2023-05-20T06:25:53.112Z,97779.31
2023-05-20T06:28:22.190Z,97783.13
2023-05-20T06:30:50.564Z,97789.19
2023-05-20T06:33:20.349Z,97782.13
2023-05-20T06:35:48.795Z,97786.31
2023-05-20T06:38:16.982Z,97789.84
2023-05-20T06:40:45.342Z,97788.88
2023-05-20T06:43:15.010Z,97786.66
2023-05-20T06:46:03.714Z,97791.91
2023-05-20T06:48:46.726Z,97774.31
2023-05-20T06:51:15.156Z,97782.19
2023-05-20T06:53:46.601Z,97769.94
2023-05-20T06:56:15.746Z,97768.03
2023-05-20T06:58:46.230Z,97757.22
2023-05-20T07:01:17.810Z,97758.56
2023-05-20T07:03:47.184Z,97747.91
2023-05-20T07:06:15.789Z,97742.44
2023-05-20T07:08:44.189Z,97744.66
2023-05-20T07:11:12.937Z,97740.59
2023-05-20T07:13:41.282Z,97738.47
2023-05-20T07:16:11.004Z,97736.19
2023-05-20T07:18:42.166Z,97730.31
2023-05-20T07:21:10.400Z,97725.13
2023-05-20T07:23:52.321Z,97730.72
2023-05-20T07:26:20.465Z,97726.25
2023-05-20T07:28:48.696Z,97726.44
2023-05-20T07:31:18.772Z,97727.84
2023-05-20T07:33:47.029Z,97732.56
2023-05-20T07:36:15.201Z,97724.44
2023-05-20T07:39:00.594Z,97723.59
2023-05-20T07:41:34.680Z,97730.25
2023-05-20T07:44:03.855Z,97730.59
2023-05-20T07:46:34.424Z,97721.91
2023-05-20T07:49:02.987Z,97729.75
2023-05-20T07:51:31.358Z,97724.97
2023-05-20T07:54:00.229Z,97726.38
2023-05-20T07:56:28.510Z,97729.56
2023-05-20T07:58:58.787Z,97732.91
2023-05-20T08:01:30.905Z,97724.41
2023-05-20T08:04:01.281Z,97722.78
2023-05-20T08:06:30.190Z,97727.69
2023-05-20T08:08:59.536Z,97725.34
2023-05-20T08:11:32.643Z,97727.50
2023-05-20T08:14:02.147Z,97722.38
2023-05-20T08:16:34.582Z,97722.31
2023-05-20T08:19:04.732Z,97717.59
2023-05-20T08:21:33.373Z,97717.41
2023-05-20T08:24:01.794Z,97707.44
2023-05-20T08:26:30.449Z,97700.44
2023-05-20T08:28:58.712Z,97701.09
2023-05-20T08:31:27.125Z,97703.84
2023-05-20T08:33:55.510Z,97698.41
2023-05-20T08:36:25.899Z,97702.34
2023-05-20T08:38:54.074Z,97687.38
2023-05-20T08:41:22.824Z,97682.38
2023-05-20T08:43:51.944Z,97681.59
2023-05-20T08:46:21.476Z,97687.22
2023-05-20T08:48:50.427Z,97674.56
2023-05-20T08:51:23.765Z,97673.25
2023-05-20T08:53:53.649Z,97672.63
2023-05-20T08:56:22.199Z,97668.84
2023-05-20T08:58:50.597Z,97664.50
2023-05-20T09:01:19.047Z,97659.63
2023-05-20T09:03:47.591Z,97658.69
2023-05-20T09:06:20.176Z,97656.53
2023-05-20T09:08:51.058Z,97655.66
2023-05-20T09:11:21.828Z,97653.19
2023-05-20T09:13:51.512Z,97651.00
2023-05-20T09:16:19.982Z,97658.78
2023-05-20T09:18:48.840Z,97647.63
2023-05-20T09:21:17.129Z,97645.91
2023-05-20T09:23:49.361Z,97654.72
2023-05-20T09:26:22.235Z,97659.13
2023-05-20T09:28:50.464Z,97664.09
2023-05-20T09:31:18.664Z,97659.97
2023-05-20T09:33:46.994Z,97644.13
2023-05-20T09:36:16.646Z,97651.53
2023-05-20T09:38:45.911Z,97647.44
2023-05-20T09:41:15.448Z,97647.16
2023-05-20T09:43:46.242Z,97640.31
2023-05-20T09:46:15.089Z,97641.78
2023-05-20T09:48:43.509Z,97636.50
2023-05-20T09:51:13.403Z,97636.53
2023-05-20T09:53:42.022Z,97637.25
2023-05-20T09:56:10.306Z,97631.16
2023-05-20T09:58:39.892Z,97629.97
2023-05-20T10:01:09.627Z,97641.94
2023-05-20T10:03:38.041Z,97633.50
2023-05-20T10:06:27.983Z,97621.41
2023-05-20T10:09:14.739Z,97625.06
2023-05-20T10:11:50.325Z,97632.16
2023-05-20T10:14:30.728Z,97619.94
2023-05-20T10:17:10.249Z,97613.50
2023-05-20T10:19:38.651Z,97619.09
2023-05-20T10:22:08.620Z,97612.75
2023-05-20T10:24:38.225Z,97611.38
2023-05-20T10:27:09.724Z,97612.78
2023-05-20T10:29:45.868Z,97613.69
2023-05-20T10:32:25.486Z,97614.31
2023-05-20T10:34:55.634Z,97604.69
2023-05-20T10:37:29.073Z,97613.66
2023-05-20T10:40:11.183Z,97604.19
2023-05-20T10:42:39.645Z,97616.75
2023-05-20T10:45:09.292Z,97611.09
2023-05-20T10:47:43.747Z,97609.84
2023-05-20T10:50:30.216Z,97609.97
2023-05-20T10:53:06.936Z,97606.91
2023-05-20T10:55:38.928Z,97613.47
2023-05-20T10:58:07.714Z,97602.91
2023-05-20T11:00:37.814Z,97615.59
2023-05-20T11:03:08.231Z,97592.94
2023-05-20T11:05:36.888Z,97602.88
2023-05-20T11:08:13.633Z,97608.81
2023-05-20T11:10:48.954Z,97594.25
2023-05-20T11:13:17.775Z,97600.69
2023-05-20T11:15:46.204Z,97594.75
2023-05-20T11:18:17.872Z,97581.72
2023-05-20T11:20:47.896Z,97576.25
2023-05-20T11:23:16.819Z,97581.34
2023-05-20T11:25:44.964Z,97575.75
2023-05-20T11:28:14.959Z,97591.13
2023-05-20T11:30:43.708Z,97579.59
2023-05-20T11:33:13.948Z,97585.50
2023-05-20T11:35:47.976Z,97571.69
2023-05-20T11:38:16.828Z,97575.03
2023-05-20T11:40:50.969Z,97572.78
2023-05-20T11:43:20.438Z,97570.13
2023-05-20T11:45:49.767Z,97556.78
2023-05-20T11:48:17.996Z,97563.31
2023-05-20T11:50:49.031Z,97558.69
2023-05-20T11:53:18.950Z,97565.09
2023-05-20T11:55:48.046Z,97570.53
2023-05-20T11:58:20.522Z,97574.59
2023-05-20T12:00:53.191Z,97560.91
2023-05-20T12:03:27.919Z,97559.78
2023-05-20T12:05:57.526Z,97563.41
2023-05-20T12:08:25.874Z,97551.00
2023-05-20T12:10:54.989Z,97551.00
2023-05-20T12:13:23.901Z,97559.75
2023-05-20T12:15:52.124Z,97556.94
2023-05-20T12:18:20.304Z,97559.22
2023-05-20T12:20:48.957Z,97560.97
2023-05-20T12:23:18.755Z,97555.22
2023-05-20T12:25:49.883Z,97560.41
2023-05-20T12:28:18.397Z,97556.38
2023-05-20T12:30:46.596Z,97558.88
2023-05-20T12:33:14.769Z,97565.81
2023-05-20T12:35:44.569Z,97554.44
2023-05-20T12:38:12.744Z,97552.44
2023-05-20T12:40:42.277Z,97544.56
2023-05-20T12:43:10.532Z,97545.09
2023-05-20T12:45:38.809Z,97538.75
2023-05-20T12:48:08.229Z,97537.06
2023-05-20T12:50:36.678Z,97531.59
2023-05-20T12:53:05.545Z,97534.47
2023-05-20T12:55:36.202Z,97543.50
2023-05-20T12:58:05.795Z,97538.53
2023-05-20T13:00:34.177Z,97541.16
2023-05-20T13:03:03.724Z,97534.72
2023-05-20T13:05:32.114Z,97534.53
2023-05-20T13:08:00.413Z,97531.63
2023-05-20T13:10:29.181Z,97526.72
2023-05-20T13:12:58.006Z,97525.72
2023-05-20T13:15:28.829Z,97528.72
2023-05-20T13:17:57.309Z,97529.53
2023-05-20T13:20:25.496Z,97525.56
2023-05-20T13:22:53.850Z,97514.91
2023-05-20T13:25:22.005Z,97517.34
2023-05-20T13:27:50.153Z,97516.69
2023-05-20T13:30:18.445Z,97525.78
2023-05-20T13:32:48.083Z,97525.84
2023-05-20T13:35:16.968Z,97521.47
2023-05-20T13:37:45.545Z,97509.34
2023-05-20T13:40:14.400Z,97511.47
2023-05-20T13:42:42.708Z,97516.72
2023-05-20T13:45:11.799Z,97510.56
2023-05-20T13:47:39.987Z,97513.84
2023-05-20T13:50:11.467Z,97513.31
2023-05-20T13:52:39.712Z,97504.84
2023-05-20T13:55:09.328Z,97507.81
2023-05-20T13:57:37.909Z,97502.75
2023-05-20T14:00:07.483Z,97502.03
2023-05-20T14:02:37.134Z,97493.47
2023-05-20T14:05:06.124Z,97490.50
2023-05-20T14:07:35.829Z,97494.84
2023-05-20T14:10:04.113Z,97493.38
2023-05-20T14:12:32.962Z,97487.59
2023-05-20T14:15:01.232Z,97487.91
2023-05-20T14:17:29.871Z,97485.38
2023-05-20T14:19:58.321Z,97470.25
2023-05-20T14:22:26.583Z,97473.81
2023-05-20T14:24:56.449Z,97461.25
2023-05-20T14:27:24.761Z,97468.63
2023-05-20T14:29:52.970Z,97467.56
2023-05-20T14:32:21.241Z,97461.25
2023-05-20T14:34:49.513Z,97458.31
2023-05-20T14:37:17.746Z,97461.66
2023-05-20T14:39:46.058Z,97463.56
2023-05-20T14:42:15.712Z,97461.69
2023-05-20T14:44:43.926Z,97457.16
2023-05-20T14:47:12.282Z,97455.44
2023-05-20T14:49:42.284Z,97460.72
2023-05-20T14:52:10.522Z,97458.22
2023-05-20T14:54:43.604Z,97455.84
2023-05-20T14:57:11.781Z,97459.84
2023-05-20T14:59:41.647Z,97452.47
2023-05-20T15:02:09.902Z,97445.91
2023-05-20T15:04:38.146Z,97451.50
2023-05-20T15:07:06.898Z,97450.88
2023-05-20T15:09:35.233Z,97451.84
2023-05-20T15:12:03.408Z,97441.81
2023-05-20T15:14:31.680Z,97445.19
2023-05-20T15:17:01.354Z,97442.16
2023-05-20T15:19:29.759Z,97437.94
2023-05-20T15:21:58.038Z,97437.34
2023-05-20T15:24:26.265Z,97438.78
2023-05-20T15:26:55.143Z,97429.69
2023-05-20T15:29:23.566Z,97428.97
2023-05-20T15:31:51.953Z,97432.88
2023-05-20T15:34:21.528Z,97424.75
2023-05-20T15:36:49.683Z,97425.38
2023-05-20T15:39:18.174Z,97426.66
2023-05-20T15:41:50.102Z,97422.50
2023-05-20T15:44:18.328Z,97411.72
2023-05-20T15:46:47.304Z,97409.75
2023-05-20T15:49:15.768Z,97411.31
2023-05-20T15:51:55.574Z,97407.75
2023-05-20T15:54:30.377Z,97403.75
2023-05-20T15:56:59.166Z,97399.25
2023-05-20T15:59:27.386Z,97408.56
2023-05-20T16:01:55.798Z,97405.91
2023-05-20T16:04:24.382Z,97397.66
2023-05-20T16:06:56.043Z,97392.97
2023-05-20T16:09:25.709Z,97404.53
2023-05-20T16:11:53.908Z,97405.53
2023-05-20T16:14:22.108Z,97417.44
2023-05-20T16:16:50.363Z,97417.66
2023-05-20T16:19:18.654Z,97418.13
2023-05-20T16:21:46.806Z,97426.13
2023-05-20T16:24:16.927Z,97429.06
2023-05-20T16:26:45.196Z,97422.34
2023-05-20T16:29:16.264Z,97431.53
2023-05-20T16:31:46.822Z,97427.31
2023-05-20T16:34:16.491Z,97432.03
2023-05-20T16:36:46.411Z,97428.25
2023-05-20T16:39:16.570Z,97427.09
2023-05-20T16:41:44.902Z,97421.91
2023-05-20T16:44:13.057Z,97421.31
2023-05-20T16:46:41.368Z,97424.69
2023-05-20T16:49:09.680Z,97429.88
2023-05-20T16:51:38.534Z,97426.47
2023-05-20T16:54:06.767Z,97429.16
2023-05-20T16:56:37.121Z,97432.03
2023-05-20T16:59:06.312Z,97438.63
2023-05-20T17:01:34.545Z,97447.22
2023-05-20T17:04:03.014Z,97465.59
2023-05-20T17:06:34.408Z,97462.03
2023-05-20T17:09:04.348Z,97475.78
2023-05-20T17:11:32.616Z,97491.13
2023-05-20T17:14:03.228Z,97490.53
2023-05-20T17:16:31.687Z,97487.66
2023-05-20T17:19:00.290Z,97485.84
2023-05-20T17:21:28.879Z,97484.25
2023-05-20T17:23:57.623Z,97489.53
2023-05-20T17:26:26.450Z,97485.00
2023-05-20T17:28:55.074Z,97487.91
2023-05-20T17:31:24.978Z,97488.56
2023-05-20T17:33:53.870Z,97497.50
2023-05-20T17:36:23.264Z,97506.53
2023-05-20T17:38:52.582Z,97514.28
2023-05-20T17:41:22.362Z,97511.53
2023-05-20T17:43:51.372Z,97504.13
2023-05-20T17:46:20.825Z,97504.38
2023-05-20T17:48:51.628Z,97510.19
2023-05-20T17:51:21.558Z,97518.16
2023-05-20T17:53:50.729Z,97508.03
2023-05-20T17:56:19.979Z,97504.22
2023-05-20T17:58:49.555Z,97504.75
2023-05-20T18:01:19.286Z,97496.34
2023-05-20T18:03:48.682Z,97502.09
2023-05-20T18:06:20.773Z,97503.00
2023-05-20T18:08:49.979Z,97508.50
2023-05-20T18:11:19.210Z,97506.09
2023-05-20T18:13:48.459Z,97510.19
2023-05-20T18:16:17.706Z,97515.63
2023-05-20T18:18:47.311Z,97513.22
2023-05-20T18:21:16.570Z,97520.03
2023-05-20T18:23:47.187Z,97522.44
2023-05-20T18:26:16.533Z,97523.59
2023-05-20T18:28:45.717Z,97519.94
2023-05-20T18:31:14.817Z,97519.84
2023-05-20T18:33:43.909Z,97533.38
2023-05-20T18:36:13.139Z,97525.97
2023-05-20T18:38:42.339Z,97532.66
2023-05-20T18:41:12.751Z,97536.41
2023-05-20T18:43:41.812Z,97530.28
2023-05-20T18:46:11.264Z,97532.13
2023-05-20T18:48:40.501Z,97532.91
2023-05-20T18:51:09.644Z,97533.25
2023-05-20T18:53:38.854Z,97529.66
2023-05-20T18:56:09.745Z,97539.00
2023-05-20T18:58:40.394Z,97531.72
2023-05-20T19:01:09.780Z,97539.41
2023-05-20T19:03:39.274Z,97537.03
2023-05-20T19:06:08.565Z,97550.34
2023-05-20T19:08:37.912Z,97557.88
2023-05-20T19:11:07.401Z,97557.78
2023-05-20T19:13:36.710Z,97551.84
2023-05-20T19:16:07.814Z,97560.28
2023-05-20T19:18:37.114Z,97560.00
2023-05-20T19:21:09.364Z,97564.66
2023-05-20T19:23:38.652Z,97564.28
2023-05-20T19:26:09.104Z,97564.78
2023-05-20T19:28:38.419Z,97569.28
2023-05-20T19:31:09.036Z,97582.41
2023-05-20T19:33:38.394Z,97586.09
2023-05-20T19:36:07.895Z,97582.25
2023-05-20T19:38:37.112Z,97580.31
2023-05-20T19:41:06.351Z,97567.50
2023-05-20T19:43:35.902Z,97580.19
2023-05-20T19:46:07.161Z,97571.34
2023-05-20T19:48:37.768Z,97572.28
2023-05-20T19:51:08.509Z,97570.03
2023-05-20T19:53:38.718Z,97572.94
2023-05-20T19:56:09.067Z,97580.50
2023-05-20T19:58:38.397Z,97583.03
2023-05-20T20:01:07.749Z,97584.97
2023-05-20T20:03:38.803Z,97594.06
2023-05-20T20:06:08.166Z,97593.72
2023-05-20T20:08:38.581Z,97590.28
2023-05-20T20:11:08.496Z,97590.22
2023-05-20T20:13:37.736Z,97593.19
2023-05-20T20:16:07.613Z,97591.34
2023-05-20T20:18:38.724Z,97598.50
2023-05-20T20:21:10.018Z,97594.97
2023-05-20T20:23:39.555Z,97603.16
2023-05-20T20:26:10.047Z,97589.91
2023-05-20T20:28:39.184Z,97588.66
2023-05-20T20:31:08.378Z,97583.09
2023-05-20T20:33:38.961Z,97595.31
2023-05-20T20:36:09.604Z,97596.56
2023-05-20T20:38:39.297Z,97596.84
2023-05-20T20:41:10.178Z,97580.06
2023-05-20T20:43:39.659Z,97582.19
2023-05-20T20:46:09.946Z,97588.06
2023-05-20T20:48:41.982Z,97582.78
2023-05-20T20:51:10.963Z,97585.25
2023-05-20T20:53:41.531Z,97576.97
2023-05-20T20:56:10.406Z,97571.72
2023-05-20T20:58:39.869Z,97584.06
2023-05-20T21:01:10.113Z,97575.50
2023-05-20T21:03:40.671Z,97577.75
2023-05-20T21:06:09.062Z,97580.03
2023-05-20T21:08:37.376Z,97573.06
2023-05-20T21:11:06.455Z,97565.38
2023-05-20T21:13:34.783Z,97566.13
2023-05-20T21:16:03.007Z,97561.31
2023-05-20T21:18:31.149Z,97552.28
2023-05-20T21:21:00.907Z,97544.41
2023-05-20T21:23:29.126Z,97551.41
2023-05-20T21:25:57.306Z,97549.44
2023-05-20T21:28:25.436Z,97549.84
2023-05-20T21:30:53.663Z,97547.66
2023-05-20T21:33:21.938Z,97549.84
2023-05-20T21:35:50.137Z,97543.91
2023-05-20T21:38:19.820Z,97545.25
2023-05-20T21:40:47.981Z,97544.41
2023-05-20T21:43:16.597Z,97538.53
2023-05-20T21:45:45.766Z,97544.47
2023-05-20T21:48:14.407Z,97546.56
2023-05-20T21:50:43.272Z,97548.44
2023-05-20T21:53:11.426Z,97533.41
2023-05-20T21:55:41.464Z,97535.19
2023-05-20T21:58:09.636Z,97540.97
2023-05-20T22:00:37.800Z,97537.91
2023-05-20T22:03:06.190Z,97536.56
2023-05-20T22:05:35.145Z,97532.16
2023-05-20T22:08:03.489Z,97535.75
2023-05-20T22:10:33.827Z,97529.69
2023-05-20T22:13:03.452Z,97530.59
2023-05-20T22:15:31.881Z,97532.97
2023-05-20T22:18:00.119Z,97534.16
2023-05-20T22:20:28.740Z,97525.53
2023-05-20T22:22:57.008Z,97524.13
2023-05-20T22:25:25.215Z,97524.84
2023-05-20T22:27:53.586Z,97527.28
2023-05-20T22:30:23.496Z,97519.53
2023-05-20T22:32:51.694Z,97517.22
2023-05-20T22:35:19.893Z,97515.41
2023-05-20T22:37:48.318Z,97506.47
2023-05-20T22:40:16.716Z,97509.25
2023-05-20T22:42:44.885Z,97509.13
2023-05-20T22:45:13.103Z,97504.88
2023-05-20T22:47:42.852Z,97501.34
2023-05-20T22:50:13.549Z,97494.41
2023-05-20T22:52:41.818Z,97498.19
2023-05-20T22:55:11.642Z,97507.03
2023-05-20T22:57:39.802Z,97510.69
2023-05-20T23:00:10.091Z,97507.59
2023-05-20T23:02:41.601Z,97507.75
2023-05-20T23:05:12.418Z,97502.53
2023-05-20T23:07:40.661Z,97505.16
2023-05-20T23:10:09.606Z,97498.94
2023-05-20T23:12:37.807Z,97495.94
2023-05-20T23:15:06.799Z,97497.56
2023-05-20T23:17:35.159Z,97502.63
2023-05-20T23:20:05.492Z,97499.91
2023-05-20T23:22:35.050Z,97487.69
2023-05-20T23:25:03.448Z,97487.44
2023-05-20T23:27:31.755Z,97487.72
2023-05-20T23:29:59.985Z,97490.38
2023-05-20T23:32:28.208Z,97482.59
2023-05-20T23:34:56.372Z,97478.22
2023-05-20T23:37:24.486Z,97480.91
2023-05-20T23:39:54.030Z,97476.72
2023-05-20T23:42:22.175Z,97477.03
2023-05-20T23:44:50.439Z,97469.22
2023-05-20T23:47:18.707Z,97467.69
2023-05-20T23:49:49.250Z,97469.63
2023-05-20T23:52:17.700Z,97461.03
2023-05-20T23:54:45.864Z,97467.81
2023-05-20T23:57:16.155Z,97460.50
2023-05-20T23:59:44.295Z,97465.09
